Kerman, CA

10:17 AM PST on December 07, 2016 (GMT -0800)
Victory Farm | | Change Station

Elev 253 ft 36.77 °N, 120.09 °W | Updated 1 minute ago

Clear
Clear
47.5 °F
Feels Like 48 °F
N
1.6
Wind Variable Wind from NE
Gusts 2.2 mph

Today
High -- | Low -- °F
--% Chance of Precip.
Yesterday
High -- | Low -- °F
Precip. -- in
Pressure 30.23 in
Visibility 4.0 miles
Clouds Clear
Windchill 48 °F
Dew Point 39 °F
Humidity 73%
Rainfall 0.00 in
Snow Depth Not available.
6:59 AM 4:44 PM
First Quarter, 54% visible
METAR KMAE 071753Z AUTO 00000KT 4SM BR CLR 05/03 A3023 RMK AO2 SLP237 T00500033 10050 21006 51019
Pressure 30.23 in
Visibility 4.0 miles
Clouds Clear
Windchill 48 °F
Dew Point 39 °F
Humidity 73%
Rainfall 0.00 in
Snow Depth Not available.
6:59 AM 4:44 PM
First Quarter, 54% visible
METAR KMAE 071753Z AUTO 00000KT 4SM BR CLR 05/03 A3023 RMK AO2 SLP237 T00500033 10050 21006 51019

10-Day Weather Forecast

Almanac

Astronomy

Dec. 07, 2016 Rise Set
Actual Time
Civil Twilight
Nautical Twilight
Astronomical Twilight
Moon
Length of Visible Light
Length of Day
Tomorrow will be .
, % of the Moon is Illuminated

Today's Extremes

State Highs State Lows

Community

WunderPhotos

Upload Photos

1,956,157 photos uploaded!

WunderBlog® & News

Nearby

Air Quality

  Air Quality AQ Index Pollutant
Not available.

Snow Depth

Station Depth Elevation

Earthquake Activity

City Distance Mag. Time & Date
Minimum magnitude displayed is 2.5.

Coastal Water Temperatures

Place Temperature

Stations

Nearby Weather Stations

Station Location Temp. Windchill Dew Point Humidity Wind Precip. Elev Updated Type
                   

Watches & Warnings

There are currently no watches in effect.